sensor_id;sensor_type;location;lat;lon;timestamp;temperature;humidity
9437;DHT22;4757;59.334;18.034;2023-02-01T00:00:34;-1.10;99.90
9437;DHT22;4757;59.334;18.034;2023-02-01T00:03:01;-1.10;99.90
9437;DHT22;4757;59.334;18.034;2023-02-01T00:05:28;-1.20;99.90
9437;DHT22;4757;59.334;18.034;2023-02-01T00:07:55;-1.20;99.90
9437;DHT22;4757;59.334;18.034;2023-02-01T00:10:22;-1.20;99.90
9437;DHT22;4757;59.334;18.034;2023-02-01T00:12:50;-1.20;99.90
9437;DHT22;4757;59.334;18.034;2023-02-01T00:15:17;-1.20;99.90
9437;DHT22;4757;59.334;18.034;2023-02-01T00:17:44;-1.20;99.90
9437;DHT22;4757;59.334;18.034;2023-02-01T00:20:11;-1.20;99.90
9437;DHT22;4757;59.334;18.034;2023-02-01T00:22:38;-1.20;99.90
9437;DHT22;4757;59.334;18.034;2023-02-01T00:25:06;-1.20;99.90
9437;DHT22;4757;59.334;18.034;2023-02-01T00:27:33;-1.20;99.90
9437;DHT22;4757;59.334;18.034;2023-02-01T00:30:00;-1.20;99.90
9437;DHT22;4757;59.334;18.034;2023-02-01T00:32:27;-1.20;99.90
9437;DHT22;4757;59.334;18.034;2023-02-01T00:34:54;-1.10;99.90
9437;DHT22;4757;59.334;18.034;2023-02-01T00:37:27;-1.00;99.90
9437;DHT22;4757;59.334;18.034;2023-02-01T00:39:54;-1.00;99.90
9437;DHT22;4757;59.334;18.034;2023-02-01T00:42:22;-1.10;99.90
9437;DHT22;4757;59.334;18.034;2023-02-01T00:44:49;-1.10;99.90
9437;DHT22;4757;59.334;18.034;2023-02-01T00:47:16;-1.20;99.90
9437;DHT22;4757;59.334;18.034;2023-02-01T00:49:43;-1.20;99.90
9437;DHT22;4757;59.334;18.034;2023-02-01T00:52:11;-1.20;99.90
9437;DHT22;4757;59.334;18.034;2023-02-01T00:54:38;-1.10;99.90
9437;DHT22;4757;59.334;18.034;2023-02-01T00:57:05;-1.10;99.90
9437;DHT22;4757;59.334;18.034;2023-02-01T00:59:32;-1.10;99.90
9437;DHT22;4757;59.334;18.034;2023-02-01T01:01:59;-1.10;99.90
9437;DHT22;4757;59.334;18.034;2023-02-01T01:04:26;-1.10;99.90
9437;DHT22;4757;59.334;18.034;2023-02-01T01:06:53;-1.10;99.90
9437;DHT22;4757;59.334;18.034;2023-02-01T01:09:20;-1.10;99.90
9437;DHT22;4757;59.334;18.034;2023-02-01T01:11:47;-1.10;99.90
9437;DHT22;4757;59.334;18.034;2023-02-01T01:14:15;-1.10;99.90
9437;DHT22;4757;59.334;18.034;2023-02-01T01:16:42;-1.10;99.90
9437;DHT22;4757;59.334;18.034;2023-02-01T01:19:09;-1.10;99.90
9437;DHT22;4757;59.334;18.034;2023-02-01T01:21:36;-1.10;99.90
9437;DHT22;4757;59.334;18.034;2023-02-01T01:24:03;-1.20;99.90
9437;DHT22;4757;59.334;18.034;2023-02-01T01:26:30;-1.10;99.90
9437;DHT22;4757;59.334;18.034;2023-02-01T01:28:58;-1.00;99.90
9437;DHT22;4757;59.334;18.034;2023-02-01T01:31:26;-1.00;99.90
9437;DHT22;4757;59.334;18.034;2023-02-01T01:33:55;-0.90;99.90
9437;DHT22;4757;59.334;18.034;2023-02-01T01:36:24;-0.90;99.90
9437;DHT22;4757;59.334;18.034;2023-02-01T01:38:51;-0.90;99.90
9437;DHT22;4757;59.334;18.034;2023-02-01T01:41:22;-0.90;99.90
9437;DHT22;4757;59.334;18.034;2023-02-01T01:46:40;-0.90;99.90
9437;DHT22;4757;59.334;18.034;2023-02-01T01:49:16;-0.80;99.90
9437;DHT22;4757;59.334;18.034;2023-02-01T01:51:57;-0.80;99.90
9437;DHT22;4757;59.334;18.034;2023-02-01T01:54:31;-0.80;99.90
9437;DHT22;4757;59.334;18.034;2023-02-01T01:57:08;-0.80;99.90
9437;DHT22;4757;59.334;18.034;2023-02-01T01:59:38;-0.80;99.90
9437;DHT22;4757;59.334;18.034;2023-02-01T02:02:06;-0.80;99.90
9437;DHT22;4757;59.334;18.034;2023-02-01T02:04:34;-0.80;99.90
9437;DHT22;4757;59.334;18.034;2023-02-01T02:07:05;-0.70;99.90
9437;DHT22;4757;59.334;18.034;2023-02-01T02:09:35;-0.70;99.90
9437;DHT22;4757;59.334;18.034;2023-02-01T02:12:02;-0.70;99.90
9437;DHT22;4757;59.334;18.034;2023-02-01T02:14:30;-0.70;99.90
9437;DHT22;4757;59.334;18.034;2023-02-01T02:27:40;-0.60;99.90
9437;DHT22;4757;59.334;18.034;2023-02-01T02:36:00;-0.60;99.90
9437;DHT22;4757;59.334;18.034;2023-02-01T02:41:23;-0.50;99.90
9437;DHT22;4757;59.334;18.034;2023-02-01T02:50:22;-0.60;99.90
9437;DHT22;4757;59.334;18.034;2023-02-01T02:53:21;-0.70;99.90
9437;DHT22;4757;59.334;18.034;2023-02-01T02:56:10;-0.70;99.90
9437;DHT22;4757;59.334;18.034;2023-02-01T02:58:58;-0.60;99.90
9437;DHT22;4757;59.334;18.034;2023-02-01T03:01:44;-0.60;99.90
9437;DHT22;4757;59.334;18.034;2023-02-01T03:04:30;-0.60;99.90
9437;DHT22;4757;59.334;18.034;2023-02-01T03:06:57;-0.60;99.90
9437;DHT22;4757;59.334;18.034;2023-02-01T03:09:44;-0.70;99.90
9437;DHT22;4757;59.334;18.034;2023-02-01T03:12:13;-0.70;99.90
9437;DHT22;4757;59.334;18.034;2023-02-01T03:15:08;-0.60;99.90
9437;DHT22;4757;59.334;18.034;2023-02-01T03:17:43;-0.70;99.90
9437;DHT22;4757;59.334;18.034;2023-02-01T03:20:12;-0.60;99.90
9437;DHT22;4757;59.334;18.034;2023-02-01T03:22:42;-0.50;99.90
9437;DHT22;4757;59.334;18.034;2023-02-01T03:25:14;-0.50;99.90
9437;DHT22;4757;59.334;18.034;2023-02-01T03:27:46;-0.50;99.90
9437;DHT22;4757;59.334;18.034;2023-02-01T03:30:28;-0.60;99.90
9437;DHT22;4757;59.334;18.034;2023-02-01T03:32:59;-0.60;99.90
9437;DHT22;4757;59.334;18.034;2023-02-01T03:35:58;-0.60;99.90
9437;DHT22;4757;59.334;18.034;2023-02-01T03:38:40;-0.60;99.90
9437;DHT22;4757;59.334;18.034;2023-02-01T03:41:20;-0.50;99.90
9437;DHT22;4757;59.334;18.034;2023-02-01T03:44:26;-0.50;99.90
9437;DHT22;4757;59.334;18.034;2023-02-01T03:47:03;-0.50;99.90
9437;DHT22;4757;59.334;18.034;2023-02-01T03:49:43;-0.50;99.90
9437;DHT22;4757;59.334;18.034;2023-02-01T03:52:16;-0.40;99.90
9437;DHT22;4757;59.334;18.034;2023-02-01T03:54:46;-0.40;99.90
9437;DHT22;4757;59.334;18.034;2023-02-01T03:57:16;-0.30;99.90
9437;DHT22;4757;59.334;18.034;2023-02-01T03:59:45;-0.30;99.90
9437;DHT22;4757;59.334;18.034;2023-02-01T04:02:12;-0.30;99.90
9437;DHT22;4757;59.334;18.034;2023-02-01T04:04:39;-0.40;99.90
9437;DHT22;4757;59.334;18.034;2023-02-01T04:07:06;-0.40;99.90
9437;DHT22;4757;59.334;18.034;2023-02-01T04:09:33;-0.30;99.90
9437;DHT22;4757;59.334;18.034;2023-02-01T04:12:00;-0.30;99.90
9437;DHT22;4757;59.334;18.034;2023-02-01T04:14:27;-0.40;99.90
9437;DHT22;4757;59.334;18.034;2023-02-01T04:16:54;-0.40;99.90
9437;DHT22;4757;59.334;18.034;2023-02-01T04:19:21;-0.30;99.90
9437;DHT22;4757;59.334;18.034;2023-02-01T04:21:48;-0.30;99.90
9437;DHT22;4757;59.334;18.034;2023-02-01T04:24:15;-0.30;99.90
9437;DHT22;4757;59.334;18.034;2023-02-01T04:26:42;-0.30;99.90
9437;DHT22;4757;59.334;18.034;2023-02-01T04:29:10;-0.30;99.90
9437;DHT22;4757;59.334;18.034;2023-02-01T04:31:37;-0.20;99.90
9437;DHT22;4757;59.334;18.034;2023-02-01T04:34:04;-0.10;99.90
9437;DHT22;4757;59.334;18.034;2023-02-01T04:36:31;-0.10;99.90
9437;DHT22;4757;59.334;18.034;2023-02-01T04:38:58;0.00;99.90
9437;DHT22;4757;59.334;18.034;2023-02-01T04:41:25;-0.20;99.90
9437;DHT22;4757;59.334;18.034;2023-02-01T04:43:52;-0.10;99.90
9437;DHT22;4757;59.334;18.034;2023-02-01T04:46:19;-0.10;99.90
9437;DHT22;4757;59.334;18.034;2023-02-01T04:48:46;-0.10;99.90
9437;DHT22;4757;59.334;18.034;2023-02-01T04:51:14;-0.10;99.90
9437;DHT22;4757;59.334;18.034;2023-02-01T04:53:41;-0.20;99.90
9437;DHT22;4757;59.334;18.034;2023-02-01T04:56:09;-0.10;99.90
9437;DHT22;4757;59.334;18.034;2023-02-01T04:58:36;-0.20;99.90
9437;DHT22;4757;59.334;18.034;2023-02-01T05:01:04;-0.30;99.90
9437;DHT22;4757;59.334;18.034;2023-02-01T05:03:32;-0.30;99.90
9437;DHT22;4757;59.334;18.034;2023-02-01T05:06:00;-0.30;99.90
9437;DHT22;4757;59.334;18.034;2023-02-01T05:08:27;-0.20;99.90
9437;DHT22;4757;59.334;18.034;2023-02-01T05:10:55;-0.20;99.90
9437;DHT22;4757;59.334;18.034;2023-02-01T05:13:22;-0.20;99.90
9437;DHT22;4757;59.334;18.034;2023-02-01T05:16:08;-0.30;99.90
9437;DHT22;4757;59.334;18.034;2023-02-01T05:18:35;-0.20;99.90
9437;DHT22;4757;59.334;18.034;2023-02-01T05:21:02;-0.20;99.90
9437;DHT22;4757;59.334;18.034;2023-02-01T05:23:29;-0.20;99.90
9437;DHT22;4757;59.334;18.034;2023-02-01T05:26:00;-0.10;99.90
9437;DHT22;4757;59.334;18.034;2023-02-01T05:28:28;-0.10;99.90
9437;DHT22;4757;59.334;18.034;2023-02-01T05:30:55;-0.10;99.90
9437;DHT22;4757;59.334;18.034;2023-02-01T05:33:22;-0.10;99.90
9437;DHT22;4757;59.334;18.034;2023-02-01T05:35:49;-0.10;99.90
9437;DHT22;4757;59.334;18.034;2023-02-01T05:38:17;-0.10;99.90
9437;DHT22;4757;59.334;18.034;2023-02-01T05:40:44;-0.10;99.90
9437;DHT22;4757;59.334;18.034;2023-02-01T05:43:16;-0.20;99.90
9437;DHT22;4757;59.334;18.034;2023-02-01T05:45:43;-0.10;99.90
9437;DHT22;4757;59.334;18.034;2023-02-01T05:48:10;-0.10;99.90
9437;DHT22;4757;59.334;18.034;2023-02-01T05:50:37;-0.10;99.90
9437;DHT22;4757;59.334;18.034;2023-02-01T05:53:05;-0.10;99.90
9437;DHT22;4757;59.334;18.034;2023-02-01T05:55:32;-0.10;99.90
9437;DHT22;4757;59.334;18.034;2023-02-01T05:57:59;0.00;99.90
9437;DHT22;4757;59.334;18.034;2023-02-01T06:00:26;0.00;99.90
9437;DHT22;4757;59.334;18.034;2023-02-01T06:02:54;0.00;99.90
9437;DHT22;4757;59.334;18.034;2023-02-01T06:05:22;0.10;99.90
9437;DHT22;4757;59.334;18.034;2023-02-01T06:07:49;0.00;99.90
9437;DHT22;4757;59.334;18.034;2023-02-01T06:10:17;0.10;99.90
9437;DHT22;4757;59.334;18.034;2023-02-01T06:12:45;0.20;99.90
9437;DHT22;4757;59.334;18.034;2023-02-01T06:15:13;0.10;99.90
9437;DHT22;4757;59.334;18.034;2023-02-01T06:17:44;0.10;99.90
9437;DHT22;4757;59.334;18.034;2023-02-01T06:20:12;0.10;99.90
9437;DHT22;4757;59.334;18.034;2023-02-01T06:22:40;0.10;99.90
9437;DHT22;4757;59.334;18.034;2023-02-01T06:25:09;0.00;99.90
9437;DHT22;4757;59.334;18.034;2023-02-01T06:27:36;0.00;99.90
9437;DHT22;4757;59.334;18.034;2023-02-01T06:30:04;0.00;99.90
9437;DHT22;4757;59.334;18.034;2023-02-01T06:32:32;0.00;99.90
9437;DHT22;4757;59.334;18.034;2023-02-01T06:34:59;-0.10;99.90
9437;DHT22;4757;59.334;18.034;2023-02-01T06:37:27;0.10;99.90
9437;DHT22;4757;59.334;18.034;2023-02-01T06:39:56;0.00;99.90
9437;DHT22;4757;59.334;18.034;2023-02-01T06:42:23;-0.10;99.90
9437;DHT22;4757;59.334;18.034;2023-02-01T06:44:50;-0.10;99.90
9437;DHT22;4757;59.334;18.034;2023-02-01T06:47:17;-0.10;99.90
9437;DHT22;4757;59.334;18.034;2023-02-01T06:49:44;-0.10;99.90
9437;DHT22;4757;59.334;18.034;2023-02-01T06:52:11;-0.20;99.90
9437;DHT22;4757;59.334;18.034;2023-02-01T06:54:38;-0.20;99.90
9437;DHT22;4757;59.334;18.034;2023-02-01T06:57:05;-0.20;99.90
9437;DHT22;4757;59.334;18.034;2023-02-01T06:59:33;-0.10;99.90
9437;DHT22;4757;59.334;18.034;2023-02-01T07:02:02;-0.10;99.90
9437;DHT22;4757;59.334;18.034;2023-02-01T07:04:29;-0.10;99.90
9437;DHT22;4757;59.334;18.034;2023-02-01T07:06:56;-0.10;99.90
9437;DHT22;4757;59.334;18.034;2023-02-01T07:09:23;-0.10;99.90
9437;DHT22;4757;59.334;18.034;2023-02-01T07:11:51;-0.10;99.90
9437;DHT22;4757;59.334;18.034;2023-02-01T07:14:18;0.00;99.90
9437;DHT22;4757;59.334;18.034;2023-02-01T07:16:45;-0.10;99.90
9437;DHT22;4757;59.334;18.034;2023-02-01T07:19:12;0.00;99.90
9437;DHT22;4757;59.334;18.034;2023-02-01T07:21:39;0.00;99.90
9437;DHT22;4757;59.334;18.034;2023-02-01T07:24:06;0.00;99.90
9437;DHT22;4757;59.334;18.034;2023-02-01T07:26:34;0.00;99.90
9437;DHT22;4757;59.334;18.034;2023-02-01T07:29:01;0.10;99.90
9437;DHT22;4757;59.334;18.034;2023-02-01T07:31:28;0.10;99.90
9437;DHT22;4757;59.334;18.034;2023-02-01T07:33:55;0.10;99.90
9437;DHT22;4757;59.334;18.034;2023-02-01T07:36:24;0.10;99.90
9437;DHT22;4757;59.334;18.034;2023-02-01T07:38:51;0.10;99.90
9437;DHT22;4757;59.334;18.034;2023-02-01T07:41:22;0.20;99.90
9437;DHT22;4757;59.334;18.034;2023-02-01T07:43:52;0.10;99.90
9437;DHT22;4757;59.334;18.034;2023-02-01T07:46:20;0.10;99.90
9437;DHT22;4757;59.334;18.034;2023-02-01T07:48:48;0.00;99.90
9437;DHT22;4757;59.334;18.034;2023-02-01T07:51:18;0.00;99.90
9437;DHT22;4757;59.334;18.034;2023-02-01T07:53:45;-0.10;99.90
9437;DHT22;4757;59.334;18.034;2023-02-01T07:56:16;-0.10;99.90
9437;DHT22;4757;59.334;18.034;2023-02-01T07:58:50;-0.10;99.90
9437;DHT22;4757;59.334;18.034;2023-02-01T08:01:23;0.00;99.90
9437;DHT22;4757;59.334;18.034;2023-02-01T08:03:55;0.10;99.90
9437;DHT22;4757;59.334;18.034;2023-02-01T08:06:23;0.10;99.90
9437;DHT22;4757;59.334;18.034;2023-02-01T08:08:52;0.10;99.90
9437;DHT22;4757;59.334;18.034;2023-02-01T08:11:21;0.10;99.90
9437;DHT22;4757;59.334;18.034;2023-02-01T08:13:48;0.20;99.90
9437;DHT22;4757;59.334;18.034;2023-02-01T08:16:17;0.20;99.90
9437;DHT22;4757;59.334;18.034;2023-02-01T08:18:45;0.00;99.90
9437;DHT22;4757;59.334;18.034;2023-02-01T08:21:21;0.20;99.90
9437;DHT22;4757;59.334;18.034;2023-02-01T08:23:49;0.10;99.90
9437;DHT22;4757;59.334;18.034;2023-02-01T08:26:17;0.00;99.90
9437;DHT22;4757;59.334;18.034;2023-02-01T08:28:49;0.10;99.90
9437;DHT22;4757;59.334;18.034;2023-02-01T08:31:19;0.20;99.90
9437;DHT22;4757;59.334;18.034;2023-02-01T08:33:53;0.10;99.90
9437;DHT22;4757;59.334;18.034;2023-02-01T08:36:22;0.10;99.90
9437;DHT22;4757;59.334;18.034;2023-02-01T08:38:49;0.20;99.90
9437;DHT22;4757;59.334;18.034;2023-02-01T08:41:19;0.20;99.90
9437;DHT22;4757;59.334;18.034;2023-02-01T08:43:46;0.30;99.90
9437;DHT22;4757;59.334;18.034;2023-02-01T08:46:15;0.30;99.90
9437;DHT22;4757;59.334;18.034;2023-02-01T08:48:44;0.10;99.90
9437;DHT22;4757;59.334;18.034;2023-02-01T08:51:13;0.10;99.90
9437;DHT22;4757;59.334;18.034;2023-02-01T08:53:42;0.20;99.90
9437;DHT22;4757;59.334;18.034;2023-02-01T08:56:13;0.20;99.90
9437;DHT22;4757;59.334;18.034;2023-02-01T08:58:40;0.60;99.90
9437;DHT22;4757;59.334;18.034;2023-02-01T09:01:10;0.40;99.90
9437;DHT22;4757;59.334;18.034;2023-02-01T09:03:37;0.40;99.90
9437;DHT22;4757;59.334;18.034;2023-02-01T09:06:07;0.50;99.90
9437;DHT22;4757;59.334;18.034;2023-02-01T09:08:36;0.50;99.90
9437;DHT22;4757;59.334;18.034;2023-02-01T09:11:07;0.50;99.90
9437;DHT22;4757;59.334;18.034;2023-02-01T09:13:34;0.50;99.90
9437;DHT22;4757;59.334;18.034;2023-02-01T09:16:03;0.40;99.90
9437;DHT22;4757;59.334;18.034;2023-02-01T09:18:31;0.50;99.90
9437;DHT22;4757;59.334;18.034;2023-02-01T09:20:59;0.50;99.90
9437;DHT22;4757;59.334;18.034;2023-02-01T09:23:26;0.50;99.90
9437;DHT22;4757;59.334;18.034;2023-02-01T09:25:53;0.40;99.90
9437;DHT22;4757;59.334;18.034;2023-02-01T09:28:20;0.50;99.90
9437;DHT22;4757;59.334;18.034;2023-02-01T09:30:47;0.50;99.90
9437;DHT22;4757;59.334;18.034;2023-02-01T09:33:14;0.50;99.90
9437;DHT22;4757;59.334;18.034;2023-02-01T09:35:41;0.70;99.90
9437;DHT22;4757;59.334;18.034;2023-02-01T09:38:08;0.60;99.90
9437;DHT22;4757;59.334;18.034;2023-02-01T09:40:35;0.60;99.90
9437;DHT22;4757;59.334;18.034;2023-02-01T09:46:24;0.60;99.90
9437;DHT22;4757;59.334;18.034;2023-02-01T09:49:00;0.60;99.90
9437;DHT22;4757;59.334;18.034;2023-02-01T09:51:33;0.70;99.90
9437;DHT22;4757;59.334;18.034;2023-02-01T09:54:14;0.60;99.90
9437;DHT22;4757;59.334;18.034;2023-02-01T09:56:49;0.70;99.90
9437;DHT22;4757;59.334;18.034;2023-02-01T09:59:41;0.70;99.90
9437;DHT22;4757;59.334;18.034;2023-02-01T10:02:28;0.90;99.90
9437;DHT22;4757;59.334;18.034;2023-02-01T10:04:58;0.70;99.90
9437;DHT22;4757;59.334;18.034;2023-02-01T10:10:29;0.50;99.90
9437;DHT22;4757;59.334;18.034;2023-02-01T10:13:19;0.60;99.90
9437;DHT22;4757;59.334;18.034;2023-02-01T10:24:33;1.00;99.90
9437;DHT22;4757;59.334;18.034;2023-02-01T10:29:39;0.70;99.90
9437;DHT22;4757;59.334;18.034;2023-02-01T10:32:22;0.60;99.90
9437;DHT22;4757;59.334;18.034;2023-02-01T10:35:00;0.70;99.90
9437;DHT22;4757;59.334;18.034;2023-02-01T10:37:33;0.70;99.90
9437;DHT22;4757;59.334;18.034;2023-02-01T10:40:19;0.70;99.90
9437;DHT22;4757;59.334;18.034;2023-02-01T10:42:54;0.80;99.90
9437;DHT22;4757;59.334;18.034;2023-02-01T10:45:27;1.10;99.90
9437;DHT22;4757;59.334;18.034;2023-02-01T10:47:56;0.90;99.90
9437;DHT22;4757;59.334;18.034;2023-02-01T10:53:05;0.90;99.90
9437;DHT22;4757;59.334;18.034;2023-02-01T10:58:27;1.30;99.90
9437;DHT22;4757;59.334;18.034;2023-02-01T11:01:04;1.20;99.90
9437;DHT22;4757;59.334;18.034;2023-02-01T11:04:09;1.00;99.90
9437;DHT22;4757;59.334;18.034;2023-02-01T11:06:44;1.10;99.90
9437;DHT22;4757;59.334;18.034;2023-02-01T11:09:22;1.00;99.90
9437;DHT22;4757;59.334;18.034;2023-02-01T11:14:26;0.80;99.90
9437;DHT22;4757;59.334;18.034;2023-02-01T11:16:57;0.70;99.90
9437;DHT22;4757;59.334;18.034;2023-02-01T11:19:24;1.10;99.90
9437;DHT22;4757;59.334;18.034;2023-02-01T11:21:53;0.70;99.90
9437;DHT22;4757;59.334;18.034;2023-02-01T11:24:28;0.70;99.90
9437;DHT22;4757;59.334;18.034;2023-02-01T11:26:57;0.70;99.90
9437;DHT22;4757;59.334;18.034;2023-02-01T11:29:37;0.50;99.90
9437;DHT22;4757;59.334;18.034;2023-02-01T11:32:08;0.30;99.90
9437;DHT22;4757;59.334;18.034;2023-02-01T11:34:50;1.00;99.90
9437;DHT22;4757;59.334;18.034;2023-02-01T11:37:41;1.00;99.90
9437;DHT22;4757;59.334;18.034;2023-02-01T11:42:57;0.80;99.90
9437;DHT22;4757;59.334;18.034;2023-02-01T11:45:28;0.70;99.90
9437;DHT22;4757;59.334;18.034;2023-02-01T11:47:57;0.80;99.90
9437;DHT22;4757;59.334;18.034;2023-02-01T11:56:34;0.90;99.90
9437;DHT22;4757;59.334;18.034;2023-02-01T12:04:58;1.20;99.90
9437;DHT22;4757;59.334;18.034;2023-02-01T12:07:47;1.10;99.90
9437;DHT22;4757;59.334;18.034;2023-02-01T12:16:37;0.70;99.90
9437;DHT22;4757;59.334;18.034;2023-02-01T12:19:34;0.70;99.90
9437;DHT22;4757;59.334;18.034;2023-02-01T12:36:12;0.80;99.90
9437;DHT22;4757;59.334;18.034;2023-02-01T12:38:43;0.90;99.90
9437;DHT22;4757;59.334;18.034;2023-02-01T12:41:41;0.70;99.90
9437;DHT22;4757;59.334;18.034;2023-02-01T12:47:35;0.50;99.90
9437;DHT22;4757;59.334;18.034;2023-02-01T12:52:49;0.40;99.90
9437;DHT22;4757;59.334;18.034;2023-02-01T12:55:24;0.30;99.90
9437;DHT22;4757;59.334;18.034;2023-02-01T12:58:07;0.70;99.90
9437;DHT22;4757;59.334;18.034;2023-02-01T13:00:43;0.20;99.90
9437;DHT22;4757;59.334;18.034;2023-02-01T13:06:20;0.40;99.90
9437;DHT22;4757;59.334;18.034;2023-02-01T13:09:02;0.80;99.90
9437;DHT22;4757;59.334;18.034;2023-02-01T13:11:35;1.20;99.90
9437;DHT22;4757;59.334;18.034;2023-02-01T13:16:58;0.40;99.90
9437;DHT22;4757;59.334;18.034;2023-02-01T13:22:11;0.90;99.90
9437;DHT22;4757;59.334;18.034;2023-02-01T13:27:16;0.60;99.90
9437;DHT22;4757;59.334;18.034;2023-02-01T13:30:20;0.60;99.90
9437;DHT22;4757;59.334;18.034;2023-02-01T13:41:52;0.70;99.90
9437;DHT22;4757;59.334;18.034;2023-02-01T13:44:33;0.60;99.90
9437;DHT22;4757;59.334;18.034;2023-02-01T13:47:02;0.30;99.90
9437;DHT22;4757;59.334;18.034;2023-02-01T13:49:36;0.20;99.90
9437;DHT22;4757;59.334;18.034;2023-02-01T13:52:04;0.30;99.90
9437;DHT22;4757;59.334;18.034;2023-02-01T13:54:38;0.30;99.90
9437;DHT22;4757;59.334;18.034;2023-02-01T14:10:56;0.50;99.90
9437;DHT22;4757;59.334;18.034;2023-02-01T14:13:35;0.40;99.90
9437;DHT22;4757;59.334;18.034;2023-02-01T14:21:29;0.40;99.90
9437;DHT22;4757;59.334;18.034;2023-02-01T14:50:38;0.10;99.90
9437;DHT22;4757;59.334;18.034;2023-02-01T14:55:44;0.00;99.90
9437;DHT22;4757;59.334;18.034;2023-02-01T15:01:28;0.40;99.90
9437;DHT22;4757;59.334;18.034;2023-02-01T15:14:26;0.10;99.90
9437;DHT22;4757;59.334;18.034;2023-02-01T15:16:53;-0.20;99.90
9437;DHT22;4757;59.334;18.034;2023-02-01T15:19:25;0.20;99.90
9437;DHT22;4757;59.334;18.034;2023-02-01T15:21:57;0.40;99.90
9437;DHT22;4757;59.334;18.034;2023-02-01T15:24:29;0.30;99.90
9437;DHT22;4757;59.334;18.034;2023-02-01T15:27:04;0.70;99.90
9437;DHT22;4757;59.334;18.034;2023-02-01T15:29:31;0.50;99.90
9437;DHT22;4757;59.334;18.034;2023-02-01T15:32:00;0.20;99.90
9437;DHT22;4757;59.334;18.034;2023-02-01T15:35:00;0.20;99.90
9437;DHT22;4757;59.334;18.034;2023-02-01T15:37:28;0.10;99.90
9437;DHT22;4757;59.334;18.034;2023-02-01T15:42:55;0.10;99.90
9437;DHT22;4757;59.334;18.034;2023-02-01T15:45:28;0.00;99.90
9437;DHT22;4757;59.334;18.034;2023-02-01T15:47:57;0.00;99.90
9437;DHT22;4757;59.334;18.034;2023-02-01T15:50:33;-0.10;99.90
9437;DHT22;4757;59.334;18.034;2023-02-01T15:53:00;0.00;99.90
9437;DHT22;4757;59.334;18.034;2023-02-01T15:55:37;0.20;99.90
9437;DHT22;4757;59.334;18.034;2023-02-01T15:58:25;0.10;99.90
9437;DHT22;4757;59.334;18.034;2023-02-01T16:01:04;0.20;99.90
9437;DHT22;4757;59.334;18.034;2023-02-01T16:03:43;0.30;99.90
9437;DHT22;4757;59.334;18.034;2023-02-01T16:08:54;0.20;99.90
9437;DHT22;4757;59.334;18.034;2023-02-01T16:11:31;0.20;99.90
9437;DHT22;4757;59.334;18.034;2023-02-01T16:13:59;0.30;99.90
9437;DHT22;4757;59.334;18.034;2023-02-01T16:16:30;0.50;99.90
9437;DHT22;4757;59.334;18.034;2023-02-01T16:18:57;0.70;99.90
9437;DHT22;4757;59.334;18.034;2023-02-01T16:21:25;0.60;99.90
9437;DHT22;4757;59.334;18.034;2023-02-01T16:23:52;0.90;99.90
9437;DHT22;4757;59.334;18.034;2023-02-01T16:26:20;0.60;99.90
9437;DHT22;4757;59.334;18.034;2023-02-01T16:28:48;0.30;99.90
9437;DHT22;4757;59.334;18.034;2023-02-01T16:31:18;0.10;99.90
9437;DHT22;4757;59.334;18.034;2023-02-01T16:33:49;-0.10;99.90
9437;DHT22;4757;59.334;18.034;2023-02-01T16:36:17;0.00;99.90
9437;DHT22;4757;59.334;18.034;2023-02-01T16:38:48;0.30;99.90
9437;DHT22;4757;59.334;18.034;2023-02-01T16:41:21;0.00;99.90
9437;DHT22;4757;59.334;18.034;2023-02-01T16:43:51;-0.20;99.90
9437;DHT22;4757;59.334;18.034;2023-02-01T16:46:20;-0.10;99.90
9437;DHT22;4757;59.334;18.034;2023-02-01T16:48:56;0.30;99.90
9437;DHT22;4757;59.334;18.034;2023-02-01T16:51:28;0.10;99.90
9437;DHT22;4757;59.334;18.034;2023-02-01T16:53:59;0.10;99.90
9437;DHT22;4757;59.334;18.034;2023-02-01T16:56:31;0.30;99.90
9437;DHT22;4757;59.334;18.034;2023-02-01T16:58:59;0.20;99.90
9437;DHT22;4757;59.334;18.034;2023-02-01T17:01:27;0.20;99.90
9437;DHT22;4757;59.334;18.034;2023-02-01T17:03:55;0.40;99.90
9437;DHT22;4757;59.334;18.034;2023-02-01T17:06:24;0.30;99.90
9437;DHT22;4757;59.334;18.034;2023-02-01T17:08:56;0.10;99.90
9437;DHT22;4757;59.334;18.034;2023-02-01T17:11:27;0.10;99.90
9437;DHT22;4757;59.334;18.034;2023-02-01T17:14:19;0.20;99.90
9437;DHT22;4757;59.334;18.034;2023-02-01T17:16:48;0.20;99.90
9437;DHT22;4757;59.334;18.034;2023-02-01T17:19:18;0.10;99.90
9437;DHT22;4757;59.334;18.034;2023-02-01T17:21:56;0.20;99.90
9437;DHT22;4757;59.334;18.034;2023-02-01T17:24:28;0.10;99.90
9437;DHT22;4757;59.334;18.034;2023-02-01T17:27:14;0.20;99.90
9437;DHT22;4757;59.334;18.034;2023-02-01T17:29:42;0.20;99.90
9437;DHT22;4757;59.334;18.034;2023-02-01T17:32:16;0.20;99.90
9437;DHT22;4757;59.334;18.034;2023-02-01T17:34:45;0.10;99.90
9437;DHT22;4757;59.334;18.034;2023-02-01T17:37:32;0.20;99.90
9437;DHT22;4757;59.334;18.034;2023-02-01T17:40:00;0.00;99.90
9437;DHT22;4757;59.334;18.034;2023-02-01T17:42:29;-0.10;99.90
9437;DHT22;4757;59.334;18.034;2023-02-01T17:45:01;-0.10;99.90
9437;DHT22;4757;59.334;18.034;2023-02-01T17:47:28;0.00;99.90
9437;DHT22;4757;59.334;18.034;2023-02-01T17:49:56;0.10;99.90
9437;DHT22;4757;59.334;18.034;2023-02-01T17:52:26;0.00;99.90
9437;DHT22;4757;59.334;18.034;2023-02-01T17:54:56;0.10;99.90
9437;DHT22;4757;59.334;18.034;2023-02-01T17:57:24;-0.10;99.90
9437;DHT22;4757;59.334;18.034;2023-02-01T17:59:51;-0.20;99.90
9437;DHT22;4757;59.334;18.034;2023-02-01T18:02:23;-0.30;99.90
9437;DHT22;4757;59.334;18.034;2023-02-01T18:04:53;-0.10;99.90
9437;DHT22;4757;59.334;18.034;2023-02-01T18:07:21;-0.20;99.90
9437;DHT22;4757;59.334;18.034;2023-02-01T18:09:48;-0.40;99.90
9437;DHT22;4757;59.334;18.034;2023-02-01T18:12:21;-0.40;99.90
9437;DHT22;4757;59.334;18.034;2023-02-01T18:14:48;-0.30;99.90
9437;DHT22;4757;59.334;18.034;2023-02-01T18:17:15;-0.20;99.90
9437;DHT22;4757;59.334;18.034;2023-02-01T18:19:43;-0.20;99.90
9437;DHT22;4757;59.334;18.034;2023-02-01T18:22:20;-0.30;99.90
9437;DHT22;4757;59.334;18.034;2023-02-01T18:24:47;-0.50;99.90
9437;DHT22;4757;59.334;18.034;2023-02-01T18:27:17;-0.20;99.90
9437;DHT22;4757;59.334;18.034;2023-02-01T18:29:50;-0.40;99.90
9437;DHT22;4757;59.334;18.034;2023-02-01T18:32:22;-0.30;99.90
9437;DHT22;4757;59.334;18.034;2023-02-01T18:34:51;-0.20;99.90
9437;DHT22;4757;59.334;18.034;2023-02-01T18:37:21;-0.20;99.90
9437;DHT22;4757;59.334;18.034;2023-02-01T18:39:49;-0.40;99.90
9437;DHT22;4757;59.334;18.034;2023-02-01T18:42:24;-0.30;99.90
9437;DHT22;4757;59.334;18.034;2023-02-01T18:45:08;-0.40;99.90
9437;DHT22;4757;59.334;18.034;2023-02-01T18:47:52;-0.40;99.90
9437;DHT22;4757;59.334;18.034;2023-02-01T18:50:25;-0.50;99.90
9437;DHT22;4757;59.334;18.034;2023-02-01T18:53:00;-0.50;99.90
9437;DHT22;4757;59.334;18.034;2023-02-01T18:55:33;-0.50;99.90
9437;DHT22;4757;59.334;18.034;2023-02-01T18:58:03;-0.60;99.90
9437;DHT22;4757;59.334;18.034;2023-02-01T19:00:33;-0.70;99.90
9437;DHT22;4757;59.334;18.034;2023-02-01T19:03:25;-0.80;99.90
9437;DHT22;4757;59.334;18.034;2023-02-01T19:06:31;-0.80;99.90
9437;DHT22;4757;59.334;18.034;2023-02-01T19:09:17;-0.60;99.90
9437;DHT22;4757;59.334;18.034;2023-02-01T19:11:56;-0.70;99.90
9437;DHT22;4757;59.334;18.034;2023-02-01T19:14:35;-0.60;99.90
9437;DHT22;4757;59.334;18.034;2023-02-01T19:17:15;-0.60;99.90
9437;DHT22;4757;59.334;18.034;2023-02-01T19:19:53;-0.50;99.90
9437;DHT22;4757;59.334;18.034;2023-02-01T19:22:23;-0.70;99.90
9437;DHT22;4757;59.334;18.034;2023-02-01T19:25:32;-0.40;99.90